sensor_id;sensor_type;location;lat;lon;timestamp;pressure;altitude;pressure_sealevel;temperature;humidity
62402;BME280;48440;51.224;22.506;2023-04-24T00:11:28;98430.03;;;13.78;46.45
62402;BME280;48440;51.224;22.506;2023-04-24T00:21:14;98422.38;;;13.80;45.52
62402;BME280;48440;51.224;22.506;2023-04-24T00:23:49;98420.75;;;13.79;45.97
62402;BME280;48440;51.224;22.506;2023-04-24T00:26:24;98416.63;;;13.81;45.99
62402;BME280;48440;51.224;22.506;2023-04-24T00:28:50;98418.03;;;13.79;46.45
62402;BME280;48440;51.224;22.506;2023-04-24T00:31:21;98409.56;;;13.80;46.53
62402;BME280;48440;51.224;22.506;2023-04-24T00:33:47;98408.03;;;13.74;46.01
62402;BME280;48440;51.224;22.506;2023-04-24T00:36:39;98409.44;;;13.72;45.96
62402;BME280;48440;51.224;22.506;2023-04-24T00:39:10;98405.91;;;13.71;46.60
62402;BME280;48440;51.224;22.506;2023-04-24T00:41:36;98411.34;;;13.71;46.68
62402;BME280;48440;51.224;22.506;2023-04-24T00:44:05;98403.75;;;13.68;47.41
62402;BME280;48440;51.224;22.506;2023-04-24T00:46:33;98405.22;;;13.61;47.42
62402;BME280;48440;51.224;22.506;2023-04-24T00:49:11;98412.16;;;13.53;47.42
62402;BME280;48440;51.224;22.506;2023-04-24T00:51:51;98410.53;;;13.52;47.21
62402;BME280;48440;51.224;22.506;2023-04-24T00:54:18;98404.59;;;13.50;46.98
62402;BME280;48440;51.224;22.506;2023-04-24T00:56:44;98407.81;;;13.52;47.60
62402;BME280;48440;51.224;22.506;2023-04-24T00:59:27;98410.03;;;13.50;47.50
62402;BME280;48440;51.224;22.506;2023-04-24T01:01:53;98407.09;;;13.46;47.91
62402;BME280;48440;51.224;22.506;2023-04-24T01:04:20;98409.06;;;13.41;48.52
62402;BME280;48440;51.224;22.506;2023-04-24T01:06:45;98405.59;;;13.35;48.58
62402;BME280;48440;51.224;22.506;2023-04-24T01:09:14;98405.31;;;13.37;48.83
62402;BME280;48440;51.224;22.506;2023-04-24T01:11:41;98410.59;;;13.28;49.14
62402;BME280;48440;51.224;22.506;2023-04-24T01:14:07;98399.88;;;13.18;49.22
62402;BME280;48440;51.224;22.506;2023-04-24T01:16:33;98407.22;;;13.17;49.32
62402;BME280;48440;51.224;22.506;2023-04-24T01:18:59;98397.22;;;13.08;49.44
62402;BME280;48440;51.224;22.506;2023-04-24T01:21:26;98401.28;;;13.10;48.58
62402;BME280;48440;51.224;22.506;2023-04-24T01:23:57;98407.03;;;13.09;49.24
62402;BME280;48440;51.224;22.506;2023-04-24T01:26:23;98401.94;;;13.02;49.93
62402;BME280;48440;51.224;22.506;2023-04-24T01:28:51;98400.81;;;13.03;50.08
62402;BME280;48440;51.224;22.506;2023-04-24T01:31:23;98401.94;;;13.02;49.89
62402;BME280;48440;51.224;22.506;2023-04-24T01:33:49;98396.28;;;12.99;49.10
62402;BME280;48440;51.224;22.506;2023-04-24T01:36:16;98397.88;;;13.00;49.70
62402;BME280;48440;51.224;22.506;2023-04-24T01:38:45;98399.66;;;12.90;50.59
62402;BME280;48440;51.224;22.506;2023-04-24T01:41:10;98387.41;;;12.88;50.39
62402;BME280;48440;51.224;22.506;2023-04-24T01:43:36;98390.44;;;12.86;50.98
62402;BME280;48440;51.224;22.506;2023-04-24T01:46:13;98394.31;;;12.80;50.49
62402;BME280;48440;51.224;22.506;2023-04-24T01:48:38;98394.03;;;12.82;50.49
62402;BME280;48440;51.224;22.506;2023-04-24T01:51:04;98394.59;;;12.79;50.93
62402;BME280;48440;51.224;22.506;2023-04-24T01:53:30;98389.22;;;12.74;50.72
62402;BME280;48440;51.224;22.506;2023-04-24T01:55:57;98389.22;;;12.74;50.67
62402;BME280;48440;51.224;22.506;2023-04-24T01:58:25;98386.50;;;12.74;51.29
62402;BME280;48440;51.224;22.506;2023-04-24T02:00:52;98381.66;;;12.71;51.14
62402;BME280;48440;51.224;22.506;2023-04-24T02:03:17;98378.22;;;12.60;51.88
62402;BME280;48440;51.224;22.506;2023-04-24T02:05:46;98385.88;;;12.58;52.30
62402;BME280;48440;51.224;22.506;2023-04-24T02:08:12;98384.53;;;12.55;52.07
62402;BME280;48440;51.224;22.506;2023-04-24T02:10:38;98381.56;;;12.52;52.37
62402;BME280;48440;51.224;22.506;2023-04-24T02:13:04;98374.78;;;12.49;52.27
62402;BME280;48440;51.224;22.506;2023-04-24T02:15:31;98378.84;;;12.52;50.93
62402;BME280;48440;51.224;22.506;2023-04-24T02:18:23;98369.31;;;12.54;51.13
62402;BME280;48440;51.224;22.506;2023-04-24T02:20:49;98369.81;;;12.56;51.06
62402;BME280;48440;51.224;22.506;2023-04-24T02:23:18;98371.56;;;12.47;51.52
62402;BME280;48440;51.224;22.506;2023-04-24T02:25:44;98364.19;;;12.48;50.65
62402;BME280;48440;51.224;22.506;2023-04-24T02:28:10;98364.81;;;12.45;50.91
62402;BME280;48440;51.224;22.506;2023-04-24T02:30:35;98356.34;;;12.46;50.87
62402;BME280;48440;51.224;22.506;2023-04-24T02:33:05;98356.41;;;12.41;50.70
62402;BME280;48440;51.224;22.506;2023-04-24T02:35:42;98354.50;;;12.42;51.01
62402;BME280;48440;51.224;22.506;2023-04-24T02:38:07;98361.56;;;12.43;50.80
62402;BME280;48440;51.224;22.506;2023-04-24T02:40:33;98356.94;;;12.43;50.45
62402;BME280;48440;51.224;22.506;2023-04-24T02:42:59;98356.41;;;12.41;50.24
62402;BME280;48440;51.224;22.506;2023-04-24T02:45:25;98349.28;;;12.45;50.25
62402;BME280;48440;51.224;22.506;2023-04-24T02:47:50;98354.78;;;12.40;49.95
62402;BME280;48440;51.224;22.506;2023-04-24T02:50:16;98352.69;;;12.32;50.24
62402;BME280;48440;51.224;22.506;2023-04-24T02:52:41;98355.47;;;12.27;50.83
62402;BME280;48440;51.224;22.506;2023-04-24T02:55:07;98354.59;;;12.32;50.44
62402;BME280;48440;51.224;22.506;2023-04-24T02:57:34;98359.75;;;12.33;50.50
62402;BME280;48440;51.224;22.506;2023-04-24T03:00:02;98360.09;;;12.27;50.49
62402;BME280;48440;51.224;22.506;2023-04-24T03:02:40;98360.75;;;12.18;50.55
62402;BME280;48440;51.224;22.506;2023-04-24T03:05:09;98357.66;;;12.25;50.44
62402;BME280;48440;51.224;22.506;2023-04-24T03:07:37;98352.78;;;12.22;50.77
62402;BME280;48440;51.224;22.506;2023-04-24T03:10:04;98352.88;;;12.17;50.46
62402;BME280;48440;51.224;22.506;2023-04-24T03:12:31;98357.38;;;12.27;50.59
62402;BME280;48440;51.224;22.506;2023-04-24T03:14:56;98354.94;;;12.25;50.29
62402;BME280;48440;51.224;22.506;2023-04-24T03:17:22;98358.53;;;12.20;50.55
62402;BME280;48440;51.224;22.506;2023-04-24T03:19:47;98350.06;;;12.22;50.67
62402;BME280;48440;51.224;22.506;2023-04-24T03:22:13;98354.06;;;12.30;50.68
62402;BME280;48440;51.224;22.506;2023-04-24T03:24:39;98354.13;;;12.24;50.96
62402;BME280;48440;51.224;22.506;2023-04-24T03:27:16;98344.13;;;12.20;50.30
62402;BME280;48440;51.224;22.506;2023-04-24T03:29:52;98348.47;;;12.21;50.78
62402;BME280;48440;51.224;22.506;2023-04-24T03:32:28;98350.66;;;12.19;50.84
62402;BME280;48440;51.224;22.506;2023-04-24T03:34:54;98346.63;;;12.16;51.16
62402;BME280;48440;51.224;22.506;2023-04-24T03:37:49;98354.41;;;12.23;51.18
62402;BME280;48440;51.224;22.506;2023-04-24T03:40:16;98354.66;;;12.27;50.73
62402;BME280;48440;51.224;22.506;2023-04-24T03:42:44;98352.97;;;12.31;51.08
62402;BME280;48440;51.224;22.506;2023-04-24T03:45:13;98348.63;;;12.30;50.81
62402;BME280;48440;51.224;22.506;2023-04-24T03:47:41;98350.81;;;12.28;50.88
62402;BME280;48440;51.224;22.506;2023-04-24T03:50:07;98350.66;;;12.19;51.00
62402;BME280;48440;51.224;22.506;2023-04-24T03:52:33;98348.41;;;12.26;50.88
62402;BME280;48440;51.224;22.506;2023-04-24T03:54:59;98350.53;;;12.29;51.23
62402;BME280;48440;51.224;22.506;2023-04-24T03:57:25;98344.56;;;12.27;50.82
62402;BME280;48440;51.224;22.506;2023-04-24T03:59:53;98346.69;;;12.35;51.26
62402;BME280;48440;51.224;22.506;2023-04-24T04:02:19;98352.63;;;12.37;51.78
62402;BME280;48440;51.224;22.506;2023-04-24T04:04:45;98355.66;;;12.36;52.07
62402;BME280;48440;51.224;22.506;2023-04-24T04:07:10;98348.00;;;12.38;52.25
62402;BME280;48440;51.224;22.506;2023-04-24T04:09:36;98354.50;;;12.42;52.19
62402;BME280;48440;51.224;22.506;2023-04-24T04:12:02;98353.13;;;12.44;52.30
62402;BME280;48440;51.224;22.506;2023-04-24T04:14:28;98358.59;;;12.39;52.46
62402;BME280;48440;51.224;22.506;2023-04-24T04:16:54;98352.59;;;12.42;52.33
62402;BME280;48440;51.224;22.506;2023-04-24T04:19:20;98356.16;;;12.38;52.46
62402;BME280;48440;51.224;22.506;2023-04-24T04:21:46;98360.00;;;12.37;52.83
62402;BME280;48440;51.224;22.506;2023-04-24T04:24:16;98356.22;;;12.33;52.85
62402;BME280;48440;51.224;22.506;2023-04-24T04:26:41;98351.03;;;12.36;52.47
62402;BME280;48440;51.224;22.506;2023-04-24T04:29:13;98360.22;;;12.40;52.00
62402;BME280;48440;51.224;22.506;2023-04-24T04:31:38;98359.88;;;12.47;52.13
62402;BME280;48440;51.224;22.506;2023-04-24T04:34:04;98357.16;;;12.47;52.39
62402;BME280;48440;51.224;22.506;2023-04-24T04:36:33;98362.28;;;12.48;52.11
62402;BME280;48440;51.224;22.506;2023-04-24T04:39:02;98362.00;;;12.50;52.24
62402;BME280;48440;51.224;22.506;2023-04-24T04:41:29;98358.94;;;12.56;52.44
62402;BME280;48440;51.224;22.506;2023-04-24T04:43:55;98360.69;;;12.71;52.37
62402;BME280;48440;51.224;22.506;2023-04-24T04:46:24;98365.94;;;12.86;51.86
62402;BME280;48440;51.224;22.506;2023-04-24T04:48:52;98365.19;;;13.00;51.76
62402;BME280;48440;51.224;22.506;2023-04-24T04:51:18;98365.50;;;12.98;51.81
62402;BME280;48440;51.224;22.506;2023-04-24T04:53:43;98366.75;;;13.06;51.99
62402;BME280;48440;51.224;22.506;2023-04-24T04:56:08;98364.78;;;13.11;51.63
62402;BME280;48440;51.224;22.506;2023-04-24T04:58:34;98365.06;;;13.10;51.90
62402;BME280;48440;51.224;22.506;2023-04-24T05:01:00;98363.38;;;13.14;51.65
62402;BME280;48440;51.224;22.506;2023-04-24T05:03:26;98356.03;;;13.33;51.65
62402;BME280;48440;51.224;22.506;2023-04-24T05:05:51;98357.81;;;13.43;51.90
62402;BME280;48440;51.224;22.506;2023-04-24T05:08:17;98355.09;;;13.43;51.49
62402;BME280;48440;51.224;22.506;2023-04-24T05:10:43;98358.47;;;13.35;52.71
62402;BME280;48440;51.224;22.506;2023-04-24T05:13:08;98359.00;;;13.37;52.01
62402;BME280;48440;51.224;22.506;2023-04-24T05:15:39;98357.63;;;13.72;51.07
62402;BME280;48440;51.224;22.506;2023-04-24T05:21:54;98357.25;;;14.24;49.39
62402;BME280;48440;51.224;22.506;2023-04-24T05:24:20;98357.34;;;14.33;49.19
62402;BME280;48440;51.224;22.506;2023-04-24T05:26:46;98357.25;;;14.38;49.58
62402;BME280;48440;51.224;22.506;2023-04-24T05:29:12;98355.19;;;14.63;48.70
62402;BME280;48440;51.224;22.506;2023-04-24T05:31:38;98355.25;;;14.85;47.36
62402;BME280;48440;51.224;22.506;2023-04-24T05:34:04;98362.53;;;14.89;46.59
62402;BME280;48440;51.224;22.506;2023-04-24T05:36:30;98352.84;;;14.97;46.36
62402;BME280;48440;51.224;22.506;2023-04-24T05:42:12;98357.84;;;15.17;45.46
62402;BME280;48440;51.224;22.506;2023-04-24T05:44:47;98355.25;;;15.35;45.17
62402;BME280;48440;51.224;22.506;2023-04-24T05:47:32;98358.22;;;15.60;44.40
62402;BME280;48440;51.224;22.506;2023-04-24T05:49:58;98355.03;;;15.81;44.80
62402;BME280;48440;51.224;22.506;2023-04-24T05:52:23;98354.63;;;15.96;44.08
62402;BME280;48440;51.224;22.506;2023-04-24T05:54:49;98355.44;;;15.97;43.17
62402;BME280;48440;51.224;22.506;2023-04-24T05:57:15;98351.16;;;16.04;43.02
62402;BME280;48440;51.224;22.506;2023-04-24T05:59:41;98348.50;;;16.21;42.64
62402;BME280;48440;51.224;22.506;2023-04-24T06:02:07;98349.09;;;16.10;42.63
62402;BME280;48440;51.224;22.506;2023-04-24T06:04:32;98346.00;;;16.42;42.04
62402;BME280;48440;51.224;22.506;2023-04-24T06:06:59;98347.53;;;16.57;41.78
62402;BME280;48440;51.224;22.506;2023-04-24T06:09:39;98349.69;;;16.69;41.42
62402;BME280;48440;51.224;22.506;2023-04-24T06:12:08;98339.75;;;16.81;41.97
62402;BME280;48440;51.224;22.506;2023-04-24T06:14:34;98343.19;;;17.04;40.81
62402;BME280;48440;51.224;22.506;2023-04-24T06:17:00;98346.09;;;17.08;40.44
62402;BME280;48440;51.224;22.506;2023-04-24T06:19:26;98342.72;;;17.28;40.42
62402;BME280;48440;51.224;22.506;2023-04-24T06:21:52;98344.84;;;17.40;39.95
62402;BME280;48440;51.224;22.506;2023-04-24T06:24:17;98335.31;;;17.28;40.27
62402;BME280;48440;51.224;22.506;2023-04-24T06:26:43;98341.91;;;17.53;40.41
62402;BME280;48440;51.224;22.506;2023-04-24T06:29:09;98341.94;;;17.36;39.90
62402;BME280;48440;51.224;22.506;2023-04-24T06:31:35;98330.63;;;17.46;39.95
62402;BME280;48440;51.224;22.506;2023-04-24T06:34:03;98331.78;;;17.71;39.98
62402;BME280;48440;51.224;22.506;2023-04-24T06:36:28;98328.66;;;17.98;39.41
62402;BME280;48440;51.224;22.506;2023-04-24T06:38:54;98333.19;;;17.94;38.98
62402;BME280;48440;51.224;22.506;2023-04-24T06:41:20;98326.16;;;18.31;39.11
62402;BME280;48440;51.224;22.506;2023-04-24T06:43:48;98325.59;;;18.47;38.80
62402;BME280;48440;51.224;22.506;2023-04-24T06:46:15;98318.06;;;18.73;38.68
62402;BME280;48440;51.224;22.506;2023-04-24T06:48:40;98324.53;;;18.98;38.71
62402;BME280;48440;51.224;22.506;2023-04-24T06:51:06;98320.53;;;18.95;36.49
62402;BME280;48440;51.224;22.506;2023-04-24T06:53:32;98322.53;;;19.07;36.43
62402;BME280;48440;51.224;22.506;2023-04-24T06:55:58;98334.31;;;19.16;36.21
62402;BME280;48440;51.224;22.506;2023-04-24T06:58:24;98328.53;;;19.30;36.28
62402;BME280;48440;51.224;22.506;2023-04-24T07:00:50;98322.84;;;19.14;36.10
62402;BME280;48440;51.224;22.506;2023-04-24T07:03:15;98329.66;;;19.29;36.02
62402;BME280;48440;51.224;22.506;2023-04-24T07:05:41;98334.84;;;19.30;36.01
62402;BME280;48440;51.224;22.506;2023-04-24T07:08:07;98324.31;;;19.32;36.36
62402;BME280;48440;51.224;22.506;2023-04-24T07:10:34;98325.31;;;19.28;36.58
62402;BME280;48440;51.224;22.506;2023-04-24T07:12:59;98329.34;;;19.51;36.98
62402;BME280;48440;51.224;22.506;2023-04-24T07:15:24;98325.22;;;19.78;36.62
62402;BME280;48440;51.224;22.506;2023-04-24T07:17:50;98324.41;;;19.78;34.99
62402;BME280;48440;51.224;22.506;2023-04-24T07:20:15;98322.50;;;19.57;35.60
62402;BME280;48440;51.224;22.506;2023-04-24T07:22:41;98327.09;;;19.86;35.57
62402;BME280;48440;51.224;22.506;2023-04-24T07:25:07;98321.53;;;20.07;36.13
62402;BME280;48440;51.224;22.506;2023-04-24T07:27:33;98326.09;;;19.91;35.69
62402;BME280;48440;51.224;22.506;2023-04-24T07:29:59;98328.81;;;20.24;35.73
62402;BME280;48440;51.224;22.506;2023-04-24T07:32:24;98333.88;;;20.22;35.05
62402;BME280;48440;51.224;22.506;2023-04-24T07:34:50;98327.22;;;20.23;35.17
62402;BME280;48440;51.224;22.506;2023-04-24T07:37:15;98321.72;;;20.35;35.25
62402;BME280;48440;51.224;22.506;2023-04-24T07:39:41;98329.22;;;20.47;35.30
62402;BME280;48440;51.224;22.506;2023-04-24T07:42:06;98327.28;;;20.47;35.88
62402;BME280;48440;51.224;22.506;2023-04-24T07:44:32;98332.31;;;20.57;34.39
62402;BME280;48440;51.224;22.506;2023-04-24T07:46:57;98324.41;;;20.68;34.79
62402;BME280;48440;51.224;22.506;2023-04-24T07:49:23;98324.66;;;20.75;34.94
62402;BME280;48440;51.224;22.506;2023-04-24T07:51:49;98324.16;;;20.97;34.50
62402;BME280;48440;51.224;22.506;2023-04-24T07:54:14;98327.25;;;21.08;34.78
62402;BME280;48440;51.224;22.506;2023-04-24T07:56:43;98325.06;;;21.26;33.39
62402;BME280;48440;51.224;22.506;2023-04-24T07:59:10;98324.94;;;21.10;34.37
62402;BME280;48440;51.224;22.506;2023-04-24T08:01:36;98324.06;;;20.94;34.44
62402;BME280;48440;51.224;22.506;2023-04-24T08:04:01;98325.78;;;20.74;34.52
62402;BME280;48440;51.224;22.506;2023-04-24T08:06:27;98320.41;;;20.78;34.53
62402;BME280;48440;51.224;22.506;2023-04-24T08:08:57;98324.06;;;20.94;34.92
62402;BME280;48440;51.224;22.506;2023-04-24T08:11:23;98322.50;;;21.33;34.60
62402;BME280;48440;51.224;22.506;2023-04-24T08:13:49;98321.69;;;21.45;34.53
62402;BME280;48440;51.224;22.506;2023-04-24T08:16:15;98321.75;;;21.88;34.14
62402;BME280;48440;51.224;22.506;2023-04-24T08:18:40;98321.00;;;21.76;33.15
62402;BME280;48440;51.224;22.506;2023-04-24T08:21:06;98322.50;;;21.73;31.65
62402;BME280;48440;51.224;22.506;2023-04-24T08:23:31;98322.25;;;21.50;31.73
62402;BME280;48440;51.224;22.506;2023-04-24T08:25:57;98317.44;;;21.35;31.36
62402;BME280;48440;51.224;22.506;2023-04-24T08:28:23;98319.88;;;21.37;31.56
62402;BME280;48440;51.224;22.506;2023-04-24T08:30:48;98318.44;;;21.55;31.38
62402;BME280;48440;51.224;22.506;2023-04-24T08:33:22;98313.00;;;21.86;31.75
62402;BME280;48440;51.224;22.506;2023-04-24T08:35:48;98306.31;;;22.15;31.53
62402;BME280;48440;51.224;22.506;2023-04-24T08:38:15;98304.75;;;22.30;30.22
62402;BME280;48440;51.224;22.506;2023-04-24T08:40:41;98309.63;;;22.05;30.65
62402;BME280;48440;51.224;22.506;2023-04-24T08:43:07;98299.03;;;22.23;31.92
62402;BME280;48440;51.224;22.506;2023-04-24T08:45:33;98298.03;;;22.47;32.01
62402;BME280;48440;51.224;22.506;2023-04-24T08:47:59;98301.81;;;22.54;31.17
62402;BME280;48440;51.224;22.506;2023-04-24T08:50:25;98296.25;;;22.39;32.35
62402;BME280;48440;51.224;22.506;2023-04-24T08:52:58;98295.75;;;22.33;31.34
62402;BME280;48440;51.224;22.506;2023-04-24T08:55:24;98293.50;;;22.54;31.37
62402;BME280;48440;51.224;22.506;2023-04-24T08:57:51;98293.78;;;22.49;30.12
62402;BME280;48440;51.224;22.506;2023-04-24T09:00:19;98289.03;;;22.65;30.39
62402;BME280;48440;51.224;22.506;2023-04-24T09:02:47;98298.09;;;22.97;30.68
62402;BME280;48440;51.224;22.506;2023-04-24T09:05:14;98285.75;;;22.60;30.46
62402;BME280;48440;51.224;22.506;2023-04-24T09:07:42;98289.56;;;22.40;30.70
62402;BME280;48440;51.224;22.506;2023-04-24T09:10:10;98292.97;;;22.33;30.92
62402;BME280;48440;51.224;22.506;2023-04-24T09:12:36;98285.09;;;22.35;30.52
62402;BME280;48440;51.224;22.506;2023-04-24T09:15:02;98278.38;;;22.32;30.58
62402;BME280;48440;51.224;22.506;2023-04-24T09:17:31;98281.72;;;22.42;30.81
62402;BME280;48440;51.224;22.506;2023-04-24T09:19:57;98282.41;;;22.70;31.21
62402;BME280;48440;51.224;22.506;2023-04-24T09:22:23;98279.59;;;22.82;30.94
62402;BME280;48440;51.224;22.506;2023-04-24T09:25:00;98290.28;;;22.52;30.24
62402;BME280;48440;51.224;22.506;2023-04-24T09:27:28;98283.44;;;22.46;30.37
62402;BME280;48440;51.224;22.506;2023-04-24T09:29:55;98280.81;;;22.69;31.88
62402;BME280;48440;51.224;22.506;2023-04-24T09:32:24;98278.81;;;23.01;32.04
62402;BME280;48440;51.224;22.506;2023-04-24T09:35:12;98265.38;;;23.19;30.90
62402;BME280;48440;51.224;22.506;2023-04-24T09:37:42;98273.09;;;23.10;28.48
62402;BME280;48440;51.224;22.506;2023-04-24T09:42:33;98275.41;;;22.25;28.58
62402;BME280;48440;51.224;22.506;2023-04-24T09:44:58;98264.78;;;22.59;29.82
62402;BME280;48440;51.224;22.506;2023-04-24T09:47:24;98272.91;;;22.83;29.02
62402;BME280;48440;51.224;22.506;2023-04-24T09:49:49;98267.59;;;22.94;28.70
62402;BME280;48440;51.224;22.506;2023-04-24T09:52:15;98261.94;;;22.55;27.80
62402;BME280;48440;51.224;22.506;2023-04-24T09:54:40;98263.19;;;22.58;28.14
62402;BME280;48440;51.224;22.506;2023-04-24T09:57:09;98259.34;;;22.47;29.10
62402;BME280;48440;51.224;22.506;2023-04-24T09:59:34;98260.25;;;22.51;27.68
62402;BME280;48440;51.224;22.506;2023-04-24T10:02:00;98258.97;;;22.64;28.25
62402;BME280;48440;51.224;22.506;2023-04-24T10:04:27;98258.19;;;22.79;27.71
62402;BME280;48440;51.224;22.506;2023-04-24T10:06:55;98243.88;;;22.93;27.31
62402;BME280;48440;51.224;22.506;2023-04-24T10:09:26;98250.50;;;22.73;26.51
62402;BME280;48440;51.224;22.506;2023-04-24T10:11:52;98247.94;;;22.80;26.98
62402;BME280;48440;51.224;22.506;2023-04-24T10:14:27;98253.78;;;22.62;25.78
62402;BME280;48440;51.224;22.506;2023-04-24T10:16:55;98249.50;;;22.65;26.35
62402;BME280;48440;51.224;22.506;2023-04-24T10:19:25;98260.06;;;22.59;26.30
62402;BME280;48440;51.224;22.506;2023-04-24T10:21:52;98245.56;;;22.31;26.25
62402;BME280;48440;51.224;22.506;2023-04-24T10:24:18;98245.84;;;22.61;27.51
62402;BME280;48440;51.224;22.506;2023-04-24T10:26:46;98248.63;;;22.61;27.28
62402;BME280;48440;51.224;22.506;2023-04-24T10:29:15;98240.44;;;22.80;27.55
62402;BME280;48440;51.224;22.506;2023-04-24T10:31:41;98247.72;;;22.73;26.03
62402;BME280;48440;51.224;22.506;2023-04-24T10:34:08;98234.78;;;22.77;25.94
62402;BME280;48440;51.224;22.506;2023-04-24T10:36:35;98231.81;;;22.50;26.93
62402;BME280;48440;51.224;22.506;2023-04-24T10:39:03;98231.28;;;22.29;26.85
62402;BME280;48440;51.224;22.506;2023-04-24T10:41:31;98225.19;;;22.55;26.86
62402;BME280;48440;51.224;22.506;2023-04-24T10:44:12;98234.34;;;22.75;27.05
62402;BME280;48440;51.224;22.506;2023-04-24T10:46:39;98219.47;;;22.79;26.57
62402;BME280;48440;51.224;22.506;2023-04-24T10:49:07;98220.94;;;22.92;26.67
62402;BME280;48440;51.224;22.506;2023-04-24T10:52:03;98218.81;;;22.70;26.50
62402;BME280;48440;51.224;22.506;2023-04-24T10:54:45;98214.38;;;22.81;27.40
62402;BME280;48440;51.224;22.506;2023-04-24T10:59:49;98212.28;;;22.43;27.04
62402;BME280;48440;51.224;22.506;2023-04-24T11:02:16;98223.00;;;22.13;27.78
62402;BME280;48440;51.224;22.506;2023-04-24T11:04:42;98219.09;;;21.71;27.16
62402;BME280;48440;51.224;22.506;2023-04-24T11:07:11;98217.28;;;21.47;27.47
62402;BME280;48440;51.224;22.506;2023-04-24T11:09:37;98212.13;;;21.61;28.27
62402;BME280;48440;51.224;22.506;2023-04-24T11:12:10;98206.47;;;21.70;27.94
62402;BME280;48440;51.224;22.506;2023-04-24T11:17:33;98214.00;;;22.16;28.26
62402;BME280;48440;51.224;22.506;2023-04-24T11:20:17;98204.31;;;22.07;27.33
62402;BME280;48440;51.224;22.506;2023-04-24T11:22:43;98196.97;;;22.14;27.26
62402;BME280;48440;51.224;22.506;2023-04-24T11:25:09;98200.59;;;21.87;27.54
62402;BME280;48440;51.224;22.506;2023-04-24T11:27:44;98210.63;;;21.63;28.26
62402;BME280;48440;51.224;22.506;2023-04-24T11:30:17;98208.97;;;21.75;28.57
62402;BME280;48440;51.224;22.506;2023-04-24T11:32:43;98206.34;;;21.66;27.86
62402;BME280;48440;51.224;22.506;2023-04-24T11:35:20;98200.94;;;21.85;29.30
62402;BME280;48440;51.224;22.506;2023-04-24T11:37:54;98191.44;;;21.98;28.94
62402;BME280;48440;51.224;22.506;2023-04-24T11:40:21;98200.31;;;21.92;27.66
62402;BME280;48440;51.224;22.506;2023-04-24T11:42:52;98206.34;;;21.66;27.96
62402;BME280;48440;51.224;22.506;2023-04-24T11:45:28;98218.13;;;21.35;28.00
62402;BME280;48440;51.224;22.506;2023-04-24T11:47:53;98202.66;;;21.30;27.98
62402;BME280;48440;51.224;22.506;2023-04-24T11:50:22;98197.81;;;21.27;28.72
62402;BME280;48440;51.224;22.506;2023-04-24T11:52:49;98197.47;;;21.29;28.66
62402;BME280;48440;51.224;22.506;2023-04-24T11:57:48;98191.97;;;21.29;28.03
62402;BME280;48440;51.224;22.506;2023-04-24T12:00:19;98194.09;;;21.36;27.97
62402;BME280;48440;51.224;22.506;2023-04-24T12:02:50;98171.97;;;21.48;28.17
62402;BME280;48440;51.224;22.506;2023-04-24T12:05:34;98182.94;;;21.60;28.18
62402;BME280;48440;51.224;22.506;2023-04-24T12:08:00;98176.59;;;21.59;27.67
62402;BME280;48440;51.224;22.506;2023-04-24T12:10:28;98174.78;;;21.36;27.03
62402;BME280;48440;51.224;22.506;2023-04-24T12:12:55;98170.06;;;21.36;27.92
62402;BME280;48440;51.224;22.506;2023-04-24T12:15:22;98177.63;;;21.39;28.41
62402;BME280;48440;51.224;22.506;2023-04-24T12:17:48;98166.84;;;21.34;26.97
62402;BME280;48440;51.224;22.506;2023-04-24T12:20:16;98171.50;;;21.18;26.31
62402;BME280;48440;51.224;22.506;2023-04-24T12:22:46;98165.06;;;21.26;26.46
62402;BME280;48440;51.224;22.506;2023-04-24T12:25:13;98154.84;;;21.26;26.69
62402;BME280;48440;51.224;22.506;2023-04-24T12:27:39;98141.94;;;21.30;25.89
62402;BME280;48440;51.224;22.506;2023-04-24T12:30:09;98157.78;;;21.33;25.32
62402;BME280;48440;51.224;22.506;2023-04-24T12:32:35;98155.38;;;21.32;25.92
62402;BME280;48440;51.224;22.506;2023-04-24T12:35:06;98144.72;;;21.30;25.73
62402;BME280;48440;51.224;22.506;2023-04-24T12:37:33;98154.19;;;21.05;23.81
62402;BME280;48440;51.224;22.506;2023-04-24T12:40:10;98132.69;;;21.11;24.34
62402;BME280;48440;51.224;22.506;2023-04-24T12:42:42;98138.53;;;21.21;25.68
62402;BME280;48440;51.224;22.506;2023-04-24T12:45:09;98132.78;;;21.14;24.68
62402;BME280;48440;51.224;22.506;2023-04-24T12:47:37;98138.44;;;21.06;24.64
62402;BME280;48440;51.224;22.506;2023-04-24T12:50:03;98123.97;;;21.09;25.55
62402;BME280;48440;51.224;22.506;2023-04-24T12:52:29;98115.22;;;21.07;26.27
62402;BME280;48440;51.224;22.506;2023-04-24T12:54:58;98126.13;;;21.15;27.13
62402;BME280;48440;51.224;22.506;2023-04-24T12:57:24;98112.31;;;21.15;27.21
62402;BME280;48440;51.224;22.506;2023-04-24T12:59:53;98117.41;;;21.13;26.42
62402;BME280;48440;51.224;22.506;2023-04-24T13:02:19;98108.50;;;21.04;26.49
62402;BME280;48440;51.224;22.506;2023-04-24T13:04:46;98105.19;;;20.98;26.61
62402;BME280;48440;51.224;22.506;2023-04-24T13:07:15;98107.25;;;21.02;27.20
62402;BME280;48440;51.224;22.506;2023-04-24T13:09:45;98099.31;;;21.00;25.65
62402;BME280;48440;51.224;22.506;2023-04-24T13:12:11;98098.19;;;20.89;25.82
62402;BME280;48440;51.224;22.506;2023-04-24T13:14:37;98091.63;;;20.93;26.38
62402;BME280;48440;51.224;22.506;2023-04-24T13:17:03;98098.31;;;20.92;26.84
62402;BME280;48440;51.224;22.506;2023-04-24T13:19:29;98091.28;;;20.95;26.57
62402;BME280;48440;51.224;22.506;2023-04-24T13:22:00;98084.88;;;20.91;25.78
62402;BME280;48440;51.224;22.506;2023-04-24T13:24:26;98081.66;;;20.89;25.64
62402;BME280;48440;51.224;22.506;2023-04-24T13:26:52;98070.75;;;20.92;25.57
62402;BME280;48440;51.224;22.506;2023-04-24T13:29:18;98066.03;;;20.93;23.49